Time;durP1;ratioP1;P1;durP2;ratioP2;P2;SDS_P1;SDS_P2;PMS_P1;PMS_P2;Temp;Humidity;BMP_temperature;BMP_pressure;BME280_temperature;BME280_humidity;BME280_pressure;Samples;Min_cycle;Max_cycle;Signal;HPM_P1;HPM_P2
2021/12/02 06:45:47;;;;;;;;;3.75;2.00;;;;;5.32;67.33;100406.00;6296691;22;46731;-85
2021/12/02 06:48:26;;;;;;;;;3.00;3.00;;;;;5.38;67.72;100437.38;6282960;22;45359;-87
2021/12/02 06:51:25;;;;;;;;;;;;;;;;;;;;;
2021/12/02 06:57:39;;;;;;;;;;;;;;;;;;;;;
2021/12/02 07:04:01;;;;;;;;;2.00;2.00;;;;;5.38;67.68;100479.13;6300261;22;45480;-88
2021/12/02 07:06:29;;;;;;;;;5.75;5.75;;;;;5.27;67.53;100452.91;6282880;22;45684;-88
2021/12/02 07:29:39;;;;;;;;;;;;;;;;;;;;;
2021/12/02 07:35:37;;;;;;;;;3.00;3.00;;;;;5.33;67.16;100495.59;6013912;23;46119;-85
2021/12/02 07:38:06;;;;;;;;;8.25;5.75;;;;;5.35;67.09;100501.72;6065539;23;45794;-84
2021/12/02 07:40:36;;;;;;;;;4.75;2.75;;;;;5.35;67.00;100486.94;6123825;23;45437;-85
2021/12/02 07:43:06;;;;;;;;;5.75;4.00;;;;;5.51;67.06;100507.16;6253619;22;45378;-84
2021/12/02 07:45:35;;;;;;;;;3.00;3.00;;;;;5.38;67.06;100475.66;6281899;22;46705;-86
2021/12/02 07:48:22;;;;;;;;;;;;;;;;;;;;;
2021/12/02 07:50:54;;;;;;;;;1.00;1.00;;;;;5.47;67.07;100486.19;6309426;22;67522;-85
2021/12/02 07:53:30;;;;;;;;;;;;;;;;;;;;;
2021/12/02 07:56:04;;;;;;;;;6.00;3.00;;;;;5.55;67.07;100518.50;6339606;22;73739;-86
2021/12/02 07:58:30;;;;;;;;;2.00;2.00;;;;;5.45;66.96;100491.44;6313376;22;45275;-84
2021/12/02 08:01:46;;;;;;;;;5.00;2.75;;;;;5.51;67.04;100493.22;6312925;22;45266;-85
2021/12/02 08:08:39;;;;;;;;;;;;;;;;;;;;;
2021/12/02 08:14:53;;;;;;;;;2.75;2.75;;;;;5.72;66.67;100523.94;5986714;23;45481;-83
2021/12/02 08:17:24;;;;;;;;;6.75;6.00;;;;;5.66;66.46;100511.69;6012207;23;45172;-86
2021/12/02 08:19:53;;;;;;;;;6.25;3.50;;;;;5.77;66.65;100532.72;6035595;23;46909;-84
2021/12/02 08:22:39;;;;;;;;;;;;;;;;;;;;;
2021/12/02 08:25:49;;;;;;;;;;;;;;;;;;;;;
2021/12/02 08:28:25;;;;;;;;;3.50;2.25;;;;;5.87;66.19;100552.00;6183898;23;73863;-86
2021/12/02 08:31:05;;;;;;;;;5.50;2.25;;;;;5.85;66.09;100558.94;6269617;22;46775;-85
2021/12/02 08:33:34;;;;;;;;;2.00;2.00;;;;;5.73;65.96;100542.25;6340180;22;45114;-86
2021/12/02 08:36:32;;;;;;;;;3.50;3.00;;;;;5.81;66.16;100565.84;6312380;22;45349;-85
2021/12/02 08:39:01;;;;;;;;;6.00;5.00;;;;;5.62;66.04;100541.25;6311779;22;45381;-84
2021/12/02 08:41:40;;;;;;;;;;;;;;;;;;;;;
2021/12/02 08:44:15;;;;;;;;;3.75;2.50;;;;;5.74;66.14;100564.00;6339443;22;72890;-85
2021/12/02 08:46:43;;;;;;;;;6.00;3.50;;;;;5.58;66.12;100542.03;6312038;22;45402;-83
2021/12/02 08:49:14;;;;;;;;;5.00;3.50;;;;;5.74;66.15;100583.16;6312457;22;45352;-85
2021/12/02 08:51:41;;;;;;;;;4.25;2.75;;;;;5.81;65.72;100591.09;6311816;22;45908;-85
2021/12/02 08:54:07;;;;;;;;;6.00;5.00;;;;;5.74;66.12;100570.09;6312191;22;45387;-85
2021/12/02 08:56:35;;;;;;;;;4.50;3.50;;;;;5.71;66.25;100553.53;6341047;22;45307;-87
2021/12/02 08:59:10;;;;;;;;;9.00;5.75;;;;;5.85;66.17;100578.09;6312439;22;45196;-86
2021/12/02 09:05:08;;;;;;;;;5.25;3.00;;;;;5.96;66.09;100596.53;6316218;22;45528;-86
2021/12/02 09:07:56;;;;;;;;;3.00;3.00;;;;;6.02;66.10;100604.47;6312514;22;45197;-86
2021/12/02 09:10:37;;;;;;;;;2.00;2.00;;;;;5.93;65.89;100576.50;6312430;22;45667;-86
2021/12/02 09:13:23;;;;;;;;;;;;;;;;;;;;;
2021/12/02 09:15:51;;;;;;;;;2.75;2.75;;;;;6.05;65.51;100575.78;6333556;22;71395;-83
2021/12/02 09:18:16;;;;;;;;;3.75;3.00;;;;;6.13;65.55;100579.34;6337158;22;45405;-83
2021/12/02 09:20:45;;;;;;;;;3.50;3.00;;;;;6.34;65.80;100601.38;6310119;22;45453;-84
2021/12/02 09:23:34;;;;;;;;;;;;;;;;;;;;;
2021/12/02 09:26:10;;;;;;;;;2.00;2.00;;;;;6.31;65.03;100572.59;6339361;22;72772;-86
2021/12/02 09:28:35;;;;;;;;;2.25;2.25;;;;;6.42;64.93;100585.78;6312580;22;45338;-84
2021/12/02 09:31:01;;;;;;;;;4.00;2.00;;;;;6.40;64.52;100584.00;6338438;22;45313;-84
2021/12/02 09:33:26;;;;;;;;;2.75;1.50;;;;;6.44;64.58;100584.91;6306909;22;46843;-84
2021/12/02 09:35:52;;;;;;;;;3.00;3.00;;;;;6.57;64.38;100602.47;6338286;22;45251;-84
2021/12/02 09:38:18;;;;;;;;;7.75;7.25;;;;;6.51;64.41;100583.25;6310158;22;45306;-84
2021/12/02 09:40:44;;;;;;;;;3.00;3.00;;;;;6.52;64.22;100585.88;6310459;22;45684;-84
2021/12/02 09:43:12;;;;;;;;;4.00;3.00;;;;;6.78;64.63;100633.19;6309368;22;46952;-84
2021/12/02 09:45:41;;;;;;;;;6.75;4.00;;;;;6.72;64.29;100616.59;6337829;22;45441;-83
2021/12/02 09:48:08;;;;;;;;;2.00;1.50;;;;;6.74;64.15;100594.81;6310645;22;45502;-84
2021/12/02 09:58:26;;;;;;;;;2.25;2.00;;;;;7.02;63.28;100636.91;6213830;22;45356;-87
2021/12/02 10:01:06;;;;;;;;;2.25;2.00;;;;;6.94;63.09;100634.22;6187823;22;45443;-85
2021/12/02 10:03:44;;;;;;;;;3.00;1.25;;;;;6.89;62.61;100628.06;6213851;22;45338;-85
2021/12/02 10:06:14;;;;;;;;;1.00;1.00;;;;;7.06;62.70;100651.81;6303373;22;46304;-84
2021/12/02 10:08:52;;;;;;;;;2.50;2.50;;;;;7.14;62.58;100644.91;6312552;22;46312;-80
2021/12/02 12:23:43;;;;;;;;;7.00;6.00;;;;;10.78;47.08;100596.25;6278446;22;45802;-88
2021/12/02 12:26:37;;;;;;;;;4.25;3.00;;;;;11.03;46.31;100574.97;6281779;22;45361;-85
2021/12/02 12:29:09;;;;;;;;;2.33;1.00;;;;;10.90;45.72;100587.38;6253160;22;45402;-87
2021/12/02 12:31:58;;;;;;;;;1.75;1.25;;;;;10.99;46.24;100602.25;6251429;22;45362;-86
2021/12/02 12:38:21;;;;;;;;;;;;;;;;;;;;;
2021/12/02 12:41:44;;;;;;;;;1.00;1.00;;;;;11.40;44.79;100595.75;6281354;22;68538;-86
2021/12/02 12:44:40;;;;;;;;;1.00;1.00;;;;;11.58;44.44;100579.75;6255372;22;45365;-86
2021/12/02 12:57:45;;;;;;;;;;;;;;;;;;;;;
2021/12/02 13:03:38;;;;;;;;;1.67;1.00;;;;;10.80;42.63;100606.78;6096274;23;45311;-88
2021/12/02 13:06:51;;;;;;;;;;;;;;;;;;;;;
2021/12/02 13:10:13;;;;;;;;;;;;;;;;;;;;;
2021/12/02 13:13:33;;;;;;;;;;;;;;;;;;;;;
2021/12/02 13:20:31;;;;;;;;;;;;;;;;;;;;;
2021/12/02 13:30:18;;;;;;;;;;;;;;;;;;;;;
2021/12/02 13:33:52;;;;;;;;;;;;;;;;;;;;;
2021/12/02 13:40:48;;;;;;;;;;;;;;;;;;;;;
2021/12/02 13:43:54;;;;;;;;;;;;;;;;;;;;;
2021/12/02 13:50:48;;;;;;;;;;;;;;;;;;;;;
2021/12/02 13:53:51;;;;;;;;;;;;;;;;;;;;;
2021/12/02 14:00:19;;;;;;;;;;;;;;;;;;;;;
2021/12/02 14:10:12;;;;;;;;;1.00;1.00;;;;;9.90;40.00;100624.72;6261232;22;44784;-86
2021/12/02 14:13:34;;;;;;;;;;;;;;;;;;;;;
2021/12/02 14:17:33;;;;;;;;;0.00;0.00;;;;;9.44;40.97;100627.44;6275969;22;73147;-86
2021/12/02 14:20:07;;;;;;;;;;;;;;;;;;;;;
2021/12/02 14:30:01;;;;;;;;;;;;;;;;;;;;;
2021/12/02 14:32:41;;;;;;;;;;;;;;;;;;;;;
2021/12/02 14:35:17;;;;;;;;;1.00;1.00;;;;;8.93;43.62;100665.06;6275984;22;73688;-86
2021/12/02 14:37:48;;;;;;;;;1.00;1.00;;;;;8.93;44.17;100688.72;6251698;22;45825;-89
2021/12/02 14:40:47;;;;;;;;;0.00;0.00;;;;;8.83;44.28;100685.19;6255136;22;45403;-90
2021/12/02 14:43:18;;;;;;;;;1.00;1.00;;;;;8.61;44.79;100665.88;6252641;22;47175;-90
2021/12/02 14:46:27;;;;;;;;;1.25;0.25;;;;;8.58;45.20;100669.38;6281812;22;45145;-91
2021/12/02 14:49:40;;;;;;;;;0.00;0.00;;;;;8.66;45.79;100687.75;6254451;22;45320;-90
2021/12/02 14:52:15;;;;;;;;;17.00;13.50;;;;;8.58;46.10;100700.84;6253387;22;45255;-87
2021/12/02 14:54:59;;;;;;;;;1.00;1.00;;;;;8.58;46.15;100705.19;6252262;22;47069;-89
2021/12/02 14:57:28;;;;;;;;;6.00;6.00;;;;;8.42;47.11;100691.19;6279006;22;45290;-90
2021/12/02 14:59:58;;;;;;;;;2.00;1.00;;;;;8.48;46.80;100716.56;6251180;22;44919;-89
2021/12/02 15:05:48;;;;;;;;;0.75;0.00;;;;;8.28;47.48;100706.78;6249195;22;45418;-86
2021/12/02 15:08:16;;;;;;;;;2.00;2.00;;;;;8.14;47.50;100704.09;6277005;22;45324;-84
2021/12/02 15:10:44;;;;;;;;;1.00;1.00;;;;;8.28;47.88;100726.91;6276256;22;45330;-84
2021/12/02 15:13:38;;;;;;;;;1.00;0.75;;;;;8.27;47.97;100736.53;6248424;22;45490;-84
2021/12/02 15:16:04;;;;;;;;;4.00;2.00;;;;;8.12;48.14;100720.69;6247879;22;45624;-84
2021/12/02 15:18:29;;;;;;;;;2.00;1.00;;;;;8.18;48.44;100742.59;6276041;22;45304;-84
2021/12/02 15:20:59;;;;;;;;;1.00;1.00;;;;;8.13;48.83;100740.81;6276151;22;45371;-84
2021/12/02 15:23:30;;;;;;;;;1.00;1.00;;;;;8.13;48.82;100749.56;6277984;22;45555;-84
2021/12/02 15:26:00;;;;;;;;;1.00;1.00;;;;;7.99;48.96;100745.94;6251811;22;45930;-83
2021/12/02 15:32:28;;;;;;;;;;;;;;;;;;;;;
2021/12/02 15:39:33;;;;;;;;;1.00;1.00;;;;;7.90;50.38;100783.47;6062485;23;45318;-84
2021/12/02 15:42:33;;;;;;;;;;;;;;;;;;;;;
2021/12/02 15:45:09;;;;;;;;;;;;;;;;;;;;;
2021/12/02 15:47:36;;;;;;;;;2.25;1.50;;;;;7.77;50.90;100802.56;6237034;22;71881;-85
2021/12/02 15:50:29;;;;;;;;;2.50;1.00;;;;;7.81;51.24;100804.38;6277981;22;45562;-86
2021/12/02 16:00:19;;;;;;;;;1.00;1.00;;;;;7.70;51.71;100825.25;6184697;23;44838;-85
2021/12/02 16:02:51;;;;;;;;;2.50;1.25;;;;;7.71;51.77;100842.69;6155450;23;47141;-84
2021/12/02 16:08:12;;;;;;;;;2.50;2.00;;;;;7.51;52.20;100821.56;6276184;22;45432;-85
2021/12/02 16:13:22;;;;;;;;;3.00;3.00;;;;;7.57;52.72;100831.22;6275037;22;45412;-83
2021/12/02 16:15:47;;;;;;;;;3.00;2.00;;;;;7.60;52.44;100841.72;6275761;22;45424;-83
2021/12/02 16:18:46;;;;;;;;;2.00;1.00;;;;;7.52;52.15;100846.00;6248978;22;45367;-85
2021/12/02 16:21:12;;;;;;;;;2.00;0.75;;;;;7.44;52.15;100843.31;6220492;22;45355;-82
2021/12/02 16:23:42;;;;;;;;;2.00;2.00;;;;;7.54;52.08;100859.09;6251677;22;47017;-84
2021/12/02 16:26:09;;;;;;;;;1.50;1.00;;;;;7.57;52.12;100869.66;6297343;22;44887;-87
2021/12/02 16:28:38;;;;;;;;;1.00;1.00;;;;;7.47;52.19;100845.09;6270033;22;44783;-88
2021/12/02 16:31:28;;;;;;;;;3.50;2.00;;;;;7.45;52.41;100852.03;6252564;22;45418;-86
2021/12/02 16:33:58;;;;;;;;;4.50;4.50;;;;;7.45;52.32;100860.78;6278650;22;45731;-83
2021/12/02 16:36:49;;;;;;;;;3.25;2.00;;;;;7.44;52.46;100859.03;6250242;22;45753;-85
2021/12/02 16:39:19;;;;;;;;;2.00;2.00;;;;;7.56;52.52;100878.34;6276672;22;45382;-83
2021/12/02 16:41:44;;;;;;;;;3.75;3.00;;;;;7.49;52.63;100880.03;6247662;22;45193;-83
2021/12/02 16:44:19;;;;;;;;;3.00;3.00;;;;;7.50;52.62;100884.41;6251931;22;46890;-84
2021/12/02 16:46:47;;;;;;;;;6.50;5.50;;;;;7.38;52.95;100863.34;6248761;22;45259;-81
2021/12/02 16:49:24;;;;;;;;;5.25;3.75;;;;;7.41;52.84;100873.84;6276590;22;45289;-83
2021/12/02 16:52:13;;;;;;;;;7.50;6.50;;;;;7.46;52.79;100880.88;6249538;22;45732;-82
2021/12/02 16:57:52;;;;;;;;;3.25;3.25;;;;;7.37;53.22;100880.75;6212479;22;45477;-82
2021/12/02 17:01:07;;;;;;;;;2.50;2.50;;;;;7.48;53.00;100902.75;6250132;22;45415;-83
2021/12/02 17:03:38;;;;;;;;;4.00;4.00;;;;;7.31;53.34;100882.44;6234827;22;45526;-83
2021/12/02 17:07:05;;;;;;;;;;;;;;;;;;;;;
2021/12/02 17:18:45;;;;;;;;;;;;;;;;;;;;;
2021/12/02 17:21:20;;;;;;;;;6.25;6.25;;;;;7.35;54.18;100927.03;6298134;22;72272;-87
2021/12/02 17:23:47;;;;;;;;;6.00;6.00;;;;;7.19;54.20;100911.97;6267480;22;45325;-85
2021/12/02 17:26:16;;;;;;;;;7.00;6.00;;;;;7.19;54.47;100925.03;6251143;22;45371;-89
2021/12/02 17:28:47;;;;;;;;;5.00;4.25;;;;;7.17;54.50;100932.03;6278433;22;46115;-86
2021/12/02 17:31:27;;;;;;;;;8.50;7.25;;;;;7.15;54.54;100925.88;6221279;22;45340;-86
2021/12/02 17:38:23;;;;;;;;;;;;;;;;;;;;;
2021/12/02 17:41:01;;;;;;;;;9.25;8.00;;;;;7.12;54.90;100949.41;6243997;22;74314;-86
2021/12/02 17:43:48;;;;;;;;;7.25;7.25;;;;;7.16;55.12;100952.06;6216304;22;45176;-86
2021/12/02 18:18:09;;;;;;;;;;;;;;;;;;;;;
2021/12/02 18:28:52;;;;;;;;;;;;;;;;;;;;;
2021/12/02 18:45:05;;;;;;;;;13.00;12.25;;;;;6.63;57.69;101002.78;5909564;23;44912;-87
2021/12/02 19:02:51;;;;;;;;;12.25;9.50;;;;;6.63;58.29;101042.00;5767140;24;45371;-92
2021/12/02 19:06:18;;;;;;;;;;;;;;;;;;;;;
2021/12/02 19:28:32;;;;;;;;;14.25;12.75;;;;;6.36;59.37;101085.94;5824524;24;45572;-86
2021/12/02 19:37:31;;;;;;;;;12.00;12.00;;;;;6.26;59.57;101094.50;5846635;23;45349;-84
2021/12/02 19:45:04;;;;;;;;;14.00;12.25;;;;;6.30;59.84;101122.44;5935244;24;45394;-89
2021/12/02 19:47:43;;;;;;;;;20.00;15.75;;;;;6.24;59.72;101119.72;5841471;23;45291;-85
2021/12/02 19:50:11;;;;;;;;;11.00;11.00;;;;;6.27;59.96;101125.00;6169494;22;45245;-86
2021/12/02 19:53:45;;;;;;;;;;;;;;;;;;;;;
2021/12/02 19:56:24;;;;;;;;;15.75;14.00;;;;;6.15;60.24;101121.31;6144583;23;72261;-86
2021/12/02 19:59:23;;;;;;;;;12.50;12.50;;;;;6.07;60.25;101108.94;6131819;23;45416;-85
2021/12/02 20:02:07;;;;;;;;;;;;;;;;;;;;;
2021/12/02 20:04:34;;;;;;;;;17.00;15.50;;;;;6.05;60.55;101106.28;6219619;22;75514;-86
2021/12/02 20:07:41;;;;;;;;;16.50;14.50;;;;;6.17;60.53;101134.38;6185354;22;45566;-89
